Time;durP1;ratioP1;P1;durP2;ratioP2;P2;SDS_P1;SDS_P2;PMS_P1;PMS_P2;Temp;Humidity;BMP_temperature;BMP_pressure;BME280_temperature;BME280_humidity;BME280_pressure;Samples;Min_cycle;Max_cycle;Signal;HPM_P1;HPM_P2
2022/09/29 00:01:08;;;;;;;4.97;3.25;;;6.60;99.90;;;;;;4956715;28;20050;-80
2022/09/29 00:03:34;;;;;;;4.93;2.75;;;6.60;99.90;;;;;;4956774;28;20468;-80
2022/09/29 00:06:00;;;;;;;3.95;3.05;;;7.30;99.90;;;;;;4956640;29;20476;-81
2022/09/29 00:08:27;;;;;;;4.15;3.65;;;6.50;99.90;;;;;;4955952;29;20053;-78
2022/09/29 00:10:53;;;;;;;4.50;3.10;;;6.50;99.90;;;;;;4956607;28;20395;-78
2022/09/29 00:13:20;;;;;;;4.25;2.67;;;6.40;99.90;;;;;;4956580;29;20043;-81
2022/09/29 00:15:55;;;;;;;4.07;3.15;;;6.40;99.90;;;;;;4956477;28;20138;-78
2022/09/29 00:18:20;;;;;;;5.45;3.05;;;6.40;99.90;;;;;;4956261;28;20160;-80
2022/09/29 00:20:56;;;;;;;5.70;3.20;;;6.30;99.90;;;;;;4955562;29;20073;-82
2022/09/29 00:23:24;;;;;;;4.95;3.53;;;6.30;99.90;;;;;;4956693;28;20467;-81
2022/09/29 00:26:08;;;;;;;4.13;3.28;;;6.30;99.90;;;;;;4956283;28;20098;-81
2022/09/29 00:28:36;;;;;;;9.82;3.88;;;6.30;99.90;;;;;;4955610;29;20093;-79
2022/09/29 00:31:02;;;;;;;;;;;6.30;99.90;;;;;;4956713;28;20051;-81
2022/09/29 00:33:32;;;;;;;11.05;4.50;;;6.30;99.90;;;;;;4956203;29;20355;-78
2022/09/29 00:36:05;;;;;;;6.20;3.45;;;6.20;99.90;;;;;;4955504;29;20066;-81
2022/09/29 00:38:31;;;;;;;3.92;3.10;;;6.20;99.90;;;;;;4956369;28;20051;-82
2022/09/29 00:40:58;;;;;;;3.97;3.50;;;6.20;99.90;;;;;;4956625;28;20101;-79
2022/09/29 00:43:54;;;;;;;4.25;3.38;;;6.20;99.90;;;;;;4955932;28;20434;-81
2022/09/29 00:46:29;;;;;;;4.65;2.80;;;6.20;99.90;;;;;;4956080;29;20047;-81
2022/09/29 00:49:03;;;;;;;3.78;3.25;;;6.20;99.90;;;;;;4939217;29;20043;-83
2022/09/29 00:51:30;;;;;;;5.15;3.53;;;6.10;99.90;;;;;;4955080;28;20098;-84
2022/09/29 00:53:57;;;;;;;10.38;3.50;;;6.10;99.90;;;;;;4956471;29;20443;-80
2022/09/29 00:56:24;;;;;;;4.63;3.63;;;6.10;99.90;;;;;;4956198;28;20093;-80
2022/09/29 00:58:59;;;;;;;4.53;3.33;;;6.20;99.90;;;;;;4955823;29;20047;-79
2022/09/29 01:01:29;;;;;;;3.47;2.88;;;6.10;99.90;;;;;;4955970;28;20067;-81
2022/09/29 01:04:00;;;;;;;5.72;3.67;;;6.10;99.90;;;;;;4955657;28;20227;-81
2022/09/29 01:06:36;;;;;;;5.15;3.47;;;6.10;99.90;;;;;;4955875;28;20185;-83
2022/09/29 01:09:09;;;;;;;4.10;3.33;;;6.10;99.90;;;;;;4955835;28;20051;-80
2022/09/29 01:11:34;;;;;;;6.05;3.40;;;6.10;99.90;;;;;;4955552;28;20055;-80
2022/09/29 01:14:05;;;;;;;4.60;3.03;;;6.00;99.90;;;;;;4955795;28;20043;-80
2022/09/29 01:16:33;;;;;;;7.05;3.53;;;6.00;99.90;;;;;;4955676;28;20050;-81
2022/09/29 01:19:01;;;;;;;4.28;3.35;;;5.90;99.90;;;;;;4955642;28;20059;-79
2022/09/29 01:21:33;;;;;;;6.40;3.17;;;5.90;99.90;;;;;;4938722;29;20058;-83
2022/09/29 01:24:28;;;;;;;4.20;3.08;;;6.50;99.90;;;;;;4955539;29;20053;-77
2022/09/29 01:27:15;;;;;;;4.05;2.92;;;5.90;99.90;;;;;;4955306;28;20498;-80
2022/09/29 01:29:55;;;;;;;5.17;3.33;;;5.90;99.90;;;;;;4957528;28;20079;-81
2022/09/29 01:32:42;;;;;;;4.93;3.25;;;5.90;99.90;;;;;;4958924;29;20668;-79
2022/09/29 01:35:27;;;;;;;11.55;3.50;;;5.80;99.90;;;;;;4959418;28;20048;-79
2022/09/29 01:38:26;;;;;;;4.28;3.38;;;5.80;99.90;;;;;;4958735;28;20443;-81
2022/09/29 01:41:10;;;;;;;5.43;3.55;;;5.80;99.90;;;;;;4958163;29;20114;-82
2022/09/29 01:43:45;;;;;;;4.45;3.28;;;5.80;99.90;;;;;;4959298;29;20067;-81
2022/09/29 01:46:15;;;;;;;5.57;3.10;;;5.70;99.90;;;;;;4959260;28;20050;-83
2022/09/29 01:48:48;;;;;;;5.07;3.58;;;5.70;99.90;;;;;;4959164;29;20082;-79
2022/09/29 01:51:21;;;;;;;4.38;2.92;;;5.70;99.90;;;;;;4959155;28;20043;-83
2022/09/29 01:53:51;;;;;;;5.90;3.53;;;5.70;99.90;;;;;;4959124;28;20139;-80
2022/09/29 01:56:31;;;;;;;5.18;3.40;;;5.70;99.90;;;;;;4959126;28;20058;-84
2022/09/29 01:59:05;;;;;;;4.63;3.28;;;5.70;99.90;;;;;;4959081;28;20043;-83
2022/09/29 02:01:36;;;;;;;5.10;4.05;;;5.60;99.90;;;;;;4959105;28;20440;-82
2022/09/29 02:04:15;;;;;;;4.85;3.95;;;5.60;99.90;;;;;;4958812;28;20475;-84
2022/09/29 02:06:53;;;;;;;5.93;3.70;;;5.60;99.90;;;;;;4958848;29;20047;-79
2022/09/29 02:09:24;;;;;;;4.75;3.45;;;5.60;99.90;;;;;;4958948;28;20062;-82
2022/09/29 02:11:52;;;;;;;6.40;3.33;;;5.50;99.90;;;;;;4958092;29;20094;-77
2022/09/29 02:14:24;;;;;;;5.05;3.40;;;5.50;99.90;;;;;;4958720;29;20043;-81
2022/09/29 02:17:05;;;;;;;5.05;3.83;;;5.50;99.90;;;;;;4958663;28;20094;-79
2022/09/29 02:19:35;;;;;;;4.55;3.67;;;5.50;99.90;;;;;;4959122;28;20106;-79
2022/09/29 02:22:01;;;;;;;6.10;3.95;;;5.40;99.90;;;;;;4958586;29;20047;-80
2022/09/29 02:24:26;;;;;;;4.70;3.60;;;5.40;99.90;;;;;;4958508;29;20130;-78
2022/09/29 02:26:52;;;;;;;5.55;3.92;;;5.40;99.90;;;;;;4958392;28;20051;-80
2022/09/29 02:29:18;;;;;;;5.93;4.40;;;5.30;99.90;;;;;;4958460;28;20055;-79
2022/09/29 02:31:46;;;;;;;5.35;3.80;;;5.20;99.90;;;;;;4958134;28;20051;-80
2022/09/29 02:34:15;;;;;;;5.18;3.63;;;5.20;99.90;;;;;;4958393;29;20047;-82
2022/09/29 02:36:59;;;;;;;5.70;4.00;;;5.20;99.90;;;;;;4957129;29;20055;-81
2022/09/29 02:39:57;;;;;;;5.45;3.85;;;5.20;99.90;;;;;;4958190;28;20150;-80
2022/09/29 02:42:47;;;;;;;5.68;4.15;;;5.20;99.90;;;;;;4958218;29;20054;-85
2022/09/29 02:45:50;;;;;;;7.80;5.07;;;5.20;99.90;;;;;;4958182;28;20043;-78
2022/09/29 02:48:26;;;;;;;5.82;4.20;;;5.20;99.90;;;;;;4958130;28;20146;-82
2022/09/29 02:50:57;;;;;;;5.40;4.38;;;5.30;99.90;;;;;;4958754;28;20054;-81
2022/09/29 02:53:31;;;;;;;5.38;3.97;;;5.30;99.90;;;;;;4958080;28;20043;-80
2022/09/29 02:56:02;;;;;;;6.93;4.45;;;5.30;99.90;;;;;;4957975;29;20388;-80
2022/09/29 02:59:00;;;;;;;8.23;4.55;;;5.30;99.90;;;;;;4956865;29;20058;-80
2022/09/29 03:01:30;;;;;;;6.07;4.95;;;5.40;99.90;;;;;;4957458;29;20151;-79
2022/09/29 03:03:55;;;;;;;7.25;5.35;;;5.40;99.90;;;;;;4956625;28;20043;-82
2022/09/29 03:06:21;;;;;;;7.13;4.68;;;5.40;99.90;;;;;;4956983;29;20039;-79
2022/09/29 03:08:47;;;;;;;8.18;5.97;;;5.40;99.90;;;;;;4957780;28;20057;-79
2022/09/29 03:11:13;;;;;;;10.90;6.13;;;5.40;99.90;;;;;;4957549;28;20043;-83
2022/09/29 03:13:38;;;;;;;9.30;5.85;;;5.40;99.90;;;;;;4957724;29;20051;-83
2022/09/29 03:16:04;;;;;;;12.77;6.22;;;5.70;99.90;;;;;;4957633;28;20518;-82
2022/09/29 03:18:29;;;;;;;18.85;5.65;;;5.40;99.90;;;;;;4957501;29;20098;-79
2022/09/29 03:20:56;;;;;;;11.43;6.18;;;5.40;99.90;;;;;;4957573;28;20079;-78
2022/09/29 03:23:22;;;;;;;14.95;7.47;;;5.40;99.90;;;;;;4956616;28;20039;-79
2022/09/29 03:25:47;;;;;;;15.45;6.03;;;5.40;99.90;;;;;;4957303;28;20105;-78
2022/09/29 03:28:15;;;;;;;17.00;6.78;;;5.40;99.90;;;;;;4957453;28;20082;-82
2022/09/29 03:30:41;;;;;;;14.77;5.65;;;5.40;99.90;;;;;;4957362;28;20051;-78
2022/09/29 03:33:06;;;;;;;70.75;10.35;;;6.00;99.90;;;;;;4957671;28;20055;-83
2022/09/29 03:35:32;;;;;;;9.70;6.00;;;5.30;99.90;;;;;;4957310;29;20043;-80
2022/09/29 03:37:59;;;;;;;17.42;6.65;;;5.30;99.90;;;;;;4957310;29;20380;-79
2022/09/29 03:40:26;;;;;;;10.30;6.15;;;5.30;99.90;;;;;;4957077;28;20118;-81
2022/09/29 03:42:52;;;;;;;11.75;6.10;;;5.30;99.90;;;;;;4957185;29;20054;-82
2022/09/29 03:45:18;;;;;;;15.13;6.00;;;5.30;99.90;;;;;;4957040;29;20047;-82
2022/09/29 03:47:44;;;;;;;15.80;6.35;;;5.30;99.90;;;;;;4957079;28;20067;-84
2022/09/29 03:50:10;;;;;;;8.45;6.68;;;5.60;99.90;;;;;;4957058;29;20511;-79
2022/09/29 03:52:36;;;;;;;6.65;5.15;;;5.20;99.90;;;;;;4955588;28;20043;-79
2022/09/29 03:55:02;;;;;;;8.07;6.15;;;5.20;99.90;;;;;;4956843;28;20047;-79
2022/09/29 03:57:27;;;;;;;8.75;6.30;;;5.20;99.90;;;;;;4957032;29;20046;-81
2022/09/29 03:59:53;;;;;;;9.07;6.75;;;5.10;99.90;;;;;;4955716;29;20047;-83
2022/09/29 04:02:19;;;;;;;10.82;7.20;;;5.20;99.90;;;;;;4955682;29;20130;-82
2022/09/29 04:04:45;;;;;;;9.25;6.05;;;5.10;99.90;;;;;;4957069;28;20452;-82
2022/09/29 04:07:11;;;;;;;9.73;6.57;;;5.20;99.90;;;;;;4956863;29;20047;-84
2022/09/29 04:09:37;;;;;;;12.80;7.28;;;5.10;99.90;;;;;;4956731;28;20047;-84
2022/09/29 04:12:02;;;;;;;19.27;6.22;;;5.10;99.90;;;;;;4956614;28;20047;-81
2022/09/29 04:14:28;;;;;;;11.10;7.88;;;5.10;99.90;;;;;;4956521;28;20551;-81
2022/09/29 04:16:54;;;;;;;14.25;7.05;;;5.10;99.90;;;;;;4955654;29;20047;-81
2022/09/29 04:19:19;;;;;;;14.30;8.65;;;5.10;99.90;;;;;;4956546;29;20563;-84
2022/09/29 04:21:45;;;;;;;11.18;7.00;;;5.10;99.90;;;;;;4955519;29;20074;-82
2022/09/29 04:24:11;;;;;;;13.20;7.82;;;5.10;99.90;;;;;;4956477;28;20039;-81
2022/09/29 04:26:38;;;;;;;14.50;8.35;;;5.10;99.90;;;;;;4956300;28;20051;-80
2022/09/29 04:29:04;;;;;;;;;;;5.10;99.90;;;;;;4956704;28;20078;-82
2022/09/29 04:31:30;;;;;;;11.55;7.90;;;5.10;99.90;;;;;;4956272;29;19923;-82
2022/09/29 04:33:55;;;;;;;8.68;6.68;;;5.10;99.90;;;;;;4956125;29;20566;-80
2022/09/29 04:36:21;;;;;;;9.20;6.35;;;5.10;99.90;;;;;;4955973;29;20050;-79
2022/09/29 04:38:49;;;;;;;10.40;6.95;;;5.10;99.90;;;;;;4956204;29;20049;-82
2022/09/29 04:41:14;;;;;;;9.32;7.18;;;5.10;99.90;;;;;;4956658;28;20078;-80
2022/09/29 04:43:40;;;;;;;15.05;7.65;;;5.10;99.90;;;;;;4956084;28;20051;-81
2022/09/29 04:46:07;;;;;;;9.00;7.68;;;5.10;99.90;;;;;;4954808;29;20078;-81
2022/09/29 04:48:34;;;;;;;7.88;6.43;;;5.10;99.90;;;;;;4956317;28;20039;-81
2022/09/29 04:51:00;;;;;;;10.52;7.60;;;5.10;99.90;;;;;;4956184;28;20047;-80
2022/09/29 04:53:26;;;;;;;7.80;6.68;;;5.00;99.90;;;;;;4955967;28;20043;-77
2022/09/29 04:55:52;;;;;;;8.50;7.03;;;5.00;99.90;;;;;;4954874;29;20150;-81
2022/09/29 04:58:17;;;;;;;7.32;5.82;;;5.00;99.90;;;;;;4955807;29;20051;-82
2022/09/29 05:00:43;;;;;;;6.60;5.50;;;5.00;99.90;;;;;;4955832;29;20047;-80
2022/09/29 05:03:09;;;;;;;7.93;6.07;;;4.90;99.90;;;;;;4954355;28;20043;-82
2022/09/29 05:05:34;;;;;;;9.00;6.35;;;4.90;99.90;;;;;;4955428;29;20047;-80
2022/09/29 05:08:03;;;;;;;8.68;6.80;;;4.90;99.90;;;;;;4955746;29;20109;-81
2022/09/29 05:10:29;;;;;;;8.05;6.40;;;4.90;99.90;;;;;;4955393;28;20502;-83
2022/09/29 05:12:54;;;;;;;9.45;6.85;;;4.90;99.90;;;;;;4955686;28;20047;-81
2022/09/29 05:15:20;;;;;;;10.82;8.77;;;4.90;99.90;;;;;;4955526;29;20039;-78
2022/09/29 05:17:46;;;;;;;9.52;8.00;;;5.40;99.90;;;;;;4954716;28;20054;-80
2022/09/29 05:20:12;;;;;;;13.73;7.80;;;5.00;99.90;;;;;;4955862;28;20126;-80
2022/09/29 05:22:37;;;;;;;9.95;6.88;;;4.90;99.90;;;;;;4955395;29;20051;-84
2022/09/29 05:25:04;;;;;;;13.15;6.60;;;5.00;99.90;;;;;;4955513;28;20061;-82
2022/09/29 05:27:29;;;;;;;42.30;11.33;;;5.00;99.90;;;;;;4955599;28;20188;-81
2022/09/29 05:29:55;;;;;;;17.25;7.32;;;5.00;99.90;;;;;;4955424;28;20282;-81
2022/09/29 05:32:20;;;;;;;19.48;7.68;;;5.00;99.90;;;;;;4955516;28;20039;-83
2022/09/29 05:34:46;;;;;;;19.33;7.50;;;5.00;99.90;;;;;;4955492;28;20046;-78
2022/09/29 05:37:12;;;;;;;23.35;9.15;;;5.00;99.90;;;;;;4955420;29;20058;-81
2022/09/29 05:39:38;;;;;;;14.25;7.18;;;5.00;99.90;;;;;;4955160;28;20058;-81
2022/09/29 05:42:08;;;;;;;14.27;6.70;;;5.00;99.90;;;;;;4954340;29;20048;-80
2022/09/29 05:44:33;;;;;;;11.35;6.57;;;5.00;99.90;;;;;;4954365;29;20303;-84
2022/09/29 05:46:59;;;;;;;17.83;7.90;;;5.00;99.90;;;;;;4955647;29;20043;-83
2022/09/29 05:49:25;;;;;;;7.20;5.65;;;5.50;99.90;;;;;;4955583;28;20055;-82
2022/09/29 05:51:51;;;;;;;25.40;7.95;;;5.00;99.90;;;;;;4955217;28;20503;-82
2022/09/29 05:54:16;;;;;;;15.10;6.93;;;5.10;99.90;;;;;;4955331;28;20074;-81
2022/09/29 05:56:42;;;;;;;16.10;6.25;;;5.10;99.90;;;;;;4955357;28;20364;-83
2022/09/29 05:59:09;;;;;;;15.52;6.53;;;5.10;99.90;;;;;;4955624;28;20138;-80
2022/09/29 06:01:34;;;;;;;14.98;6.75;;;5.10;99.90;;;;;;4955295;28;20593;-79
2022/09/29 06:04:00;;;;;;;27.85;7.68;;;5.10;99.90;;;;;;4955278;28;20139;-83
2022/09/29 06:06:27;;;;;;;23.30;7.65;;;5.20;99.90;;;;;;4955395;28;20054;-83
2022/09/29 06:08:54;;;;;;;14.52;8.05;;;5.20;99.90;;;;;;4955093;28;20043;-82
2022/09/29 06:11:22;;;;;;;15.68;7.00;;;5.20;99.90;;;;;;4955204;28;20086;-82
2022/09/29 06:13:50;;;;;;;16.10;7.50;;;5.20;99.90;;;;;;4955146;28;20043;-80
2022/09/29 06:16:18;;;;;;;13.27;7.07;;;5.30;99.90;;;;;;4956900;28;20046;-79
2022/09/29 06:18:44;;;;;;;18.42;7.82;;;5.30;99.90;;;;;;4958639;28;20110;-82
2022/09/29 06:21:15;;;;;;;16.52;8.65;;;5.40;99.90;;;;;;4957583;28;20043;-78
2022/09/29 06:23:41;;;;;;;14.20;7.47;;;5.40;99.90;;;;;;4958650;28;20452;-84
2022/09/29 06:26:09;;;;;;;12.48;7.68;;;5.40;99.90;;;;;;4957259;29;20126;-79
2022/09/29 06:28:36;;;;;;;20.95;9.55;;;5.40;99.90;;;;;;4958440;28;20047;-82
2022/09/29 06:31:04;;;;;;;10.75;7.90;;;5.50;99.90;;;;;;4957502;29;20058;-78
2022/09/29 06:33:31;;;;;;;12.40;8.15;;;5.50;99.90;;;;;;4958415;28;20047;-85
2022/09/29 06:38:42;;;;;;;15.68;9.68;;;5.60;99.90;;;;;;4958379;28;20436;-78
2022/09/29 06:41:08;;;;;;;26.50;10.05;;;5.70;99.90;;;;;;4958641;28;20070;-80
2022/09/29 06:43:34;;;;;;;16.87;9.43;;;5.70;99.90;;;;;;4956939;29;20059;-81
2022/09/29 06:46:00;;;;;;;13.85;8.82;;;5.80;99.90;;;;;;4958126;28;20044;-83
2022/09/29 06:48:28;;;;;;;16.75;9.60;;;5.80;99.90;;;;;;4957308;29;20191;-82
2022/09/29 06:50:54;;;;;;;16.92;9.73;;;5.90;99.90;;;;;;4958124;28;20403;-80
2022/09/29 06:53:19;;;;;;;12.88;8.60;;;5.90;99.90;;;;;;4958055;28;20039;-83
2022/09/29 06:55:55;;;;;;;19.10;9.50;;;5.90;99.90;;;;;;4958112;28;20130;-81
2022/09/29 06:58:24;;;;;;;13.80;8.98;;;6.00;99.90;;;;;;4956681;29;20495;-85
2022/09/29 07:00:50;;;;;;;19.55;8.82;;;6.10;99.90;;;;;;4957944;29;20435;-80
2022/09/29 07:03:16;;;;;;;12.00;10.27;;;6.10;99.90;;;;;;4957809;28;20100;-82
2022/09/29 07:05:42;;;;;;;11.68;8.15;;;6.10;99.90;;;;;;4957784;28;20298;-85
2022/09/29 07:08:08;;;;;;;11.73;8.82;;;6.20;99.90;;;;;;4957872;28;20047;-82
2022/09/29 07:10:34;;;;;;;13.45;11.23;;;6.30;99.90;;;;;;4957860;28;20480;-81
2022/09/29 07:13:00;;;;;;;15.15;9.40;;;6.30;99.90;;;;;;4957828;28;20548;-84
2022/09/29 07:15:31;;;;;;;15.00;9.75;;;6.40;99.90;;;;;;4956548;29;20051;-81
2022/09/29 07:17:59;;;;;;;13.50;9.18;;;6.50;99.90;;;;;;4957669;28;20130;-80
2022/09/29 07:20:25;;;;;;;14.20;11.27;;;6.60;99.90;;;;;;4957606;28;20055;-80
2022/09/29 07:22:51;;;;;;;14.60;10.15;;;6.60;99.90;;;;;;4957564;29;20055;-84
2022/09/29 07:25:16;;;;;;;17.77;10.50;;;6.90;99.90;;;;;;4956476;29;20040;-79
2022/09/29 07:27:42;;;;;;;19.13;10.65;;;6.70;99.90;;;;;;4956501;28;20055;-81
2022/09/29 07:30:09;;;;;;;19.55;12.05;;;6.70;99.90;;;;;;4957486;28;20043;-77
2022/09/29 07:32:34;;;;;;;15.75;9.98;;;6.70;99.90;;;;;;4935282;29;20052;-78
2022/09/29 07:35:00;;;;;;;37.60;9.98;;;6.80;99.90;;;;;;4938131;29;20043;-82
2022/09/29 07:37:29;;;;;;;27.92;10.48;;;6.80;99.90;;;;;;4938088;29;20096;-80
2022/09/29 07:39:56;;;;;;;27.35;11.25;;;6.90;99.90;;;;;;4920705;29;20480;-80
2022/09/29 07:42:21;;;;;;;21.05;12.73;;;6.90;99.90;;;;;;4937993;29;20047;-87
2022/09/29 07:44:47;;;;;;;44.97;14.00;;;7.00;99.90;;;;;;4937862;29;20043;-83
2022/09/29 07:47:13;;;;;;;32.85;15.40;;;7.60;99.90;;;;;;4937979;29;20043;-81
2022/09/29 07:49:40;;;;;;;22.00;16.45;;;7.10;99.90;;;;;;4936959;29;20404;-82
2022/09/29 07:52:05;;;;;;;17.75;12.13;;;7.20;99.90;;;;;;4938253;29;20051;-82
2022/09/29 07:54:31;;;;;;;21.33;12.00;;;7.30;99.90;;;;;;4937898;29;20172;-82
2022/09/29 07:56:59;;;;;;;18.45;11.73;;;7.30;99.90;;;;;;4937730;29;20055;-81
2022/09/29 07:59:26;;;;;;;17.65;12.15;;;7.30;99.90;;;;;;4937688;29;20063;-81
2022/09/29 08:01:52;;;;;;;16.60;11.27;;;7.40;99.90;;;;;;4936521;29;20074;-80
2022/09/29 08:04:17;;;;;;;17.08;11.48;;;7.50;99.90;;;;;;4937302;29;20287;-83
2022/09/29 08:06:43;;;;;;;21.48;16.42;;;7.50;99.90;;;;;;4936496;29;20135;-77
2022/09/29 08:09:09;;;;;;;19.60;11.70;;;7.60;99.90;;;;;;4936571;29;20070;-78
2022/09/29 08:11:37;;;;;;;14.90;11.02;;;7.70;99.90;;;;;;4937509;29;20126;-77
2022/09/29 08:14:03;;;;;;;16.50;11.30;;;7.80;99.90;;;;;;4936120;29;20047;-78
2022/09/29 08:16:29;;;;;;;15.45;11.05;;;7.90;99.90;;;;;;4937180;29;20395;-80
2022/09/29 08:18:55;;;;;;;13.75;11.18;;;8.00;99.90;;;;;;4937732;29;20059;-79
2022/09/29 08:21:21;;;;;;;14.65;11.32;;;8.00;99.90;;;;;;4937351;29;20393;-80
2022/09/29 08:23:47;;;;;;;13.80;10.93;;;8.80;99.90;;;;;;4937275;29;20039;-80
2022/09/29 08:26:16;;;;;;;15.32;10.65;;;8.40;99.90;;;;;;4937187;29;20047;-82
2022/09/29 08:28:42;;;;;;;15.55;10.60;;;8.20;99.90;;;;;;4937289;29;20119;-83
2022/09/29 08:31:13;;;;;;;13.27;10.55;;;8.30;99.90;;;;;;4937134;29;20057;-82
2022/09/29 08:33:38;;;;;;;13.02;10.75;;;8.50;99.90;;;;;;4937143;29;20051;-82
2022/09/29 08:36:13;;;;;;;12.48;9.57;;;8.50;99.90;;;;;;4936094;29;20503;-84
2022/09/29 08:38:43;;;;;;;13.90;9.77;;;8.60;99.90;;;;;;4936966;29;20052;-81
2022/09/29 08:41:37;;;;;;;11.55;9.43;;;8.70;99.90;;;;;;4936976;29;20059;-79
2022/09/29 08:44:11;;;;;;;11.98;9.30;;;8.80;99.90;;;;;;4936946;29;20051;-81
2022/09/29 08:46:45;;;;;;;11.98;10.18;;;8.90;99.90;;;;;;4935830;29;20055;-78
2022/09/29 08:49:21;;;;;;;12.60;9.63;;;8.90;99.90;;;;;;4936893;29;20048;-79
2022/09/29 08:51:54;;;;;;;11.23;9.10;;;9.00;99.90;;;;;;4936643;29;20500;-80
2022/09/29 08:54:28;;;;;;;11.75;10.00;;;9.10;99.90;;;;;;4936786;28;20051;-79
2022/09/29 08:56:53;;;;;;;12.60;10.20;;;9.20;99.90;;;;;;4936728;29;20044;-78
2022/09/29 08:59:19;;;;;;;11.73;9.32;;;9.30;99.90;;;;;;4936780;29;20095;-81
2022/09/29 09:01:51;;;;;;;12.30;8.97;;;9.40;99.90;;;;;;4936882;29;20107;-81
2022/09/29 09:04:25;;;;;;;14.52;8.75;;;9.60;99.90;;;;;;4936598;29;20075;-80
2022/09/29 09:06:56;;;;;;;11.52;8.57;;;9.70;99.90;;;;;;4937014;29;20146;-81
2022/09/29 09:09:34;;;;;;;10.52;9.18;;;9.90;99.90;;;;;;4936570;29;20059;-82
2022/09/29 09:12:09;;;;;;;13.48;9.90;;;9.90;99.90;;;;;;4936860;29;20059;-81
2022/09/29 09:14:54;;;;;;;13.60;8.85;;;10.10;99.90;;;;;;4919699;29;20385;-79
2022/09/29 09:17:38;;;;;;;14.45;9.15;;;10.20;99.90;;;;;;4936412;29;20059;-82
2022/09/29 09:20:15;;;;;;;12.45;9.57;;;10.90;99.90;;;;;;4936766;29;20504;-82
2022/09/29 09:22:54;;;;;;;12.48;8.65;;;10.40;99.90;;;;;;4936543;29;20047;-82
2022/09/29 09:25:34;;;;;;;12.80;8.65;;;10.50;99.90;;;;;;4936105;29;20047;-81
2022/09/29 09:28:25;;;;;;;10.05;8.85;;;10.60;99.90;;;;;;4936417;29;20236;-80
2022/09/29 09:31:00;;;;;;;12.32;8.80;;;10.60;99.90;;;;;;4936426;29;20090;-82
2022/09/29 09:33:51;;;;;;;11.98;8.88;;;10.70;99.90;;;;;;4936537;29;20055;-78
2022/09/29 09:36:24;;;;;;;10.75;9.48;;;10.70;99.90;;;;;;4936003;29;20560;-77
2022/09/29 09:38:54;;;;;;;11.38;9.50;;;10.80;99.90;;;;;;4934656;29;20048;-78
2022/09/29 09:41:23;;;;;;;8.73;6.88;;;11.00;99.90;;;;;;4931504;29;20123;-79
2022/09/29 09:43:55;;;;;;;9.15;7.57;;;11.10;99.90;;;;;;4917151;29;20058;-79
2022/09/29 09:46:38;;;;;;;9.73;7.82;;;11.10;99.90;;;;;;4916832;29;20045;-82
2022/09/29 09:49:34;;;;;;;7.72;6.50;;;11.10;99.90;;;;;;4928168;29;20051;-79
2022/09/29 09:52:22;;;;;;;9.57;7.60;;;11.30;99.90;;;;;;4939816;29;20043;-79
2022/09/29 09:54:55;;;;;;;7.97;7.18;;;11.40;99.90;;;;;;4939577;29;20044;-80
2022/09/29 09:57:51;;;;;;;7.97;7.03;;;11.40;99.90;;;;;;4939806;29;20172;-74
2022/09/29 10:00:20;;;;;;;8.38;7.00;;;11.50;99.90;;;;;;4939660;29;20071;-80
2022/09/29 10:02:48;;;;;;;8.55;7.25;;;11.60;99.90;;;;;;4939407;29;20102;-79
2022/09/29 10:05:17;;;;;;;9.10;7.15;;;11.60;99.90;;;;;;4939545;29;20126;-82
2022/09/29 10:07:43;;;;;;;7.05;6.35;;;11.70;99.90;;;;;;4939718;29;20086;-80
2022/09/29 10:10:15;;;;;;;8.10;7.30;;;11.80;99.90;;;;;;4939480;29;20051;-80
2022/09/29 10:12:40;;;;;;;8.90;7.25;;;11.80;99.90;;;;;;4939399;29;20056;-79
2022/09/29 10:15:41;;;;;;;8.50;7.65;;;11.90;99.90;;;;;;4939186;29;20043;-79
2022/09/29 10:18:16;;;;;;;8.27;7.13;;;12.00;99.90;;;;;;4934311;29;20491;-81
2022/09/29 10:20:42;;;;;;;7.78;6.97;;;12.20;99.90;;;;;;4939370;29;20043;-81
2022/09/29 10:23:30;;;;;;;8.90;8.05;;;12.30;99.90;;;;;;4938423;29;20057;-80
2022/09/29 10:25:58;;;;;;;7.78;6.97;;;12.40;99.90;;;;;;4937929;29;20083;-81
2022/09/29 10:28:25;;;;;;;8.90;7.32;;;12.40;99.90;;;;;;4938771;29;20522;-80
2022/09/29 10:30:53;;;;;;;10.18;7.22;;;12.50;99.90;;;;;;4939172;29;20052;-82
2022/09/29 10:33:21;;;;;;;8.50;7.63;;;12.60;99.90;;;;;;4938277;29;20134;-84
2022/09/29 10:36:01;;;;;;;8.55;7.57;;;12.60;99.90;;;;;;4937955;29;20054;-82
2022/09/29 10:38:27;;;;;;;10.70;9.07;;;12.70;99.90;;;;;;4939017;29;20055;-80
2022/09/29 10:41:04;;;;;;;10.47;9.37;;;12.70;99.90;;;;;;4938579;29;20376;-80
2022/09/29 10:43:38;;;;;;;8.93;7.10;;;12.80;99.90;;;;;;4938390;29;20047;-80
2022/09/29 10:46:05;;;;;;;9.25;8.32;;;12.80;99.90;;;;;;4938969;29;20100;-78
2022/09/29 10:48:32;;;;;;;13.75;11.43;;;12.90;99.90;;;;;;4938974;29;20047;-79
2022/09/29 10:51:03;;;;;;;9.45;8.50;;;12.90;99.90;;;;;;4938533;29;20500;-78
2022/09/29 10:53:37;;;;;;;8.02;7.22;;;13.00;99.90;;;;;;4938723;29;20387;-81
2022/09/29 10:56:24;;;;;;;7.10;6.40;;;13.00;99.90;;;;;;4938809;29;20043;-79
2022/09/29 10:58:58;;;;;;;9.05;7.13;;;13.10;99.90;;;;;;4938984;29;20121;-81
2022/09/29 11:01:25;;;;;;;8.02;7.30;;;13.30;99.90;;;;;;4938648;29;20059;-80
2022/09/29 11:03:54;;;;;;;;;;;13.40;99.90;;;;;;4938809;29;20079;-79
2022/09/29 11:06:28;;;;;;;8.40;6.18;;;13.50;99.90;;;;;;4938423;29;19922;-81
2022/09/29 11:08:56;;;;;;;7.03;5.63;;;13.50;99.90;;;;;;4938551;29;20103;-79
2022/09/29 11:11:37;;;;;;;8.48;6.30;;;13.60;99.90;;;;;;4938375;29;20056;-80
2022/09/29 11:14:03;;;;;;;5.97;5.38;;;13.60;99.90;;;;;;4938472;29;20075;-77
2022/09/29 11:16:32;;;;;;;6.85;6.15;;;13.70;99.90;;;;;;4938313;29;20079;-82
2022/09/29 11:19:07;;;;;;;6.93;6.00;;;13.70;99.90;;;;;;4938212;29;20091;-80
2022/09/29 11:21:42;;;;;;;8.35;6.88;;;13.80;99.90;;;;;;4938324;29;20056;-80
2022/09/29 11:24:29;;;;;;;10.68;7.72;;;13.90;99.90;;;;;;4938246;29;20139;-80
2022/09/29 11:27:11;;;;;;;6.53;5.93;;;13.90;99.90;;;;;;4937765;29;20428;-79
2022/09/29 11:29:52;;;;;;;6.47;5.13;;;14.00;99.90;;;;;;4938268;29;20058;-80
2022/09/29 11:32:39;;;;;;;6.30;5.50;;;14.00;99.90;;;;;;4937914;29;20055;-81
2022/09/29 11:35:39;;;;;;;5.63;4.97;;;14.10;99.90;;;;;;4937961;29;20048;-81
2022/09/29 11:38:28;;;;;;;6.90;5.60;;;14.20;99.90;;;;;;4938100;29;20508;-81
2022/09/29 11:41:03;;;;;;;6.60;5.45;;;14.20;99.90;;;;;;4937457;29;20055;-82
2022/09/29 11:43:45;;;;;;;7.05;6.35;;;14.20;99.90;;;;;;4937656;29;20055;-80
2022/09/29 11:46:31;;;;;;;5.05;4.53;;;14.30;99.90;;;;;;4937503;29;20396;-81
2022/09/29 11:49:21;;;;;;;7.70;4.82;;;14.40;99.90;;;;;;4937869;29;20428;-79
2022/09/29 11:52:02;;;;;;;5.50;4.70;;;14.30;99.90;;;;;;4937641;29;20408;-81
2022/09/29 11:54:55;;;;;;;4.90;4.10;;;14.40;99.90;;;;;;4937425;29;20054;-80
2022/09/29 11:57:38;;;;;;;6.18;4.97;;;14.50;99.90;;;;;;4937817;29;20507;-79
2022/09/29 12:00:11;;;;;;;6.53;4.22;;;14.50;99.90;;;;;;4937505;29;20091;-79
2022/09/29 12:03:01;;;;;;;4.45;4.05;;;14.50;99.90;;;;;;4937495;29;20118;-79
2022/09/29 12:05:57;;;;;;;5.38;3.42;;;14.60;99.90;;;;;;4937638;29;20377;-81
2022/09/29 12:08:56;;;;;;;4.25;3.45;;;14.60;99.90;;;;;;4937518;29;20051;-79
2022/09/29 12:11:33;;;;;;;4.70;4.30;;;14.70;99.90;;;;;;4937345;29;20049;-81
2022/09/29 12:14:15;;;;;;;6.23;5.40;;;14.80;99.90;;;;;;4936716;29;20051;-82
2022/09/29 12:16:58;;;;;;;4.40;4.00;;;14.90;99.90;;;;;;4936139;29;20047;-81
2022/09/29 12:19:30;;;;;;;6.55;5.22;;;15.30;99.90;;;;;;4937008;29;20512;-77
2022/09/29 12:21:59;;;;;;;5.38;4.65;;;15.00;99.90;;;;;;4937183;29;20399;-83
2022/09/29 12:24:33;;;;;;;4.43;3.95;;;15.10;99.90;;;;;;4936636;29;20114;-79
2022/09/29 12:27:00;;;;;;;5.93;4.25;;;15.20;99.90;;;;;;4937103;29;20075;-83
2022/09/29 12:29:57;;;;;;;5.32;4.60;;;15.20;99.90;;;;;;4936598;29;20048;-80
2022/09/29 12:32:29;;;;;;;5.03;4.50;;;15.30;99.90;;;;;;4936939;29;20407;-80
2022/09/29 12:35:10;;;;;;;6.75;4.97;;;15.20;99.90;;;;;;4937159;29;20043;-81
2022/09/29 12:38:14;;;;;;;4.28;3.55;;;15.30;99.90;;;;;;4936988;29;20404;-81
2022/09/29 12:41:03;;;;;;;5.50;4.45;;;15.20;99.90;;;;;;4929018;29;20070;-80
2022/09/29 12:43:38;;;;;;;5.43;4.72;;;15.30;99.90;;;;;;4936572;29;20048;-79
2022/09/29 12:46:13;;;;;;;6.90;6.05;;;15.30;99.90;;;;;;4936427;29;20126;-79
2022/09/29 12:48:42;;;;;;;6.68;5.97;;;15.30;99.90;;;;;;4936746;29;20059;-82
2022/09/29 12:51:19;;;;;;;7.57;6.20;;;15.40;99.90;;;;;;4936596;29;20455;-79
2022/09/29 12:53:51;;;;;;;;;;;15.40;99.90;;;;;;4936991;29;20511;-82
2022/09/29 12:56:24;;;;;;;5.68;5.15;;;15.40;99.90;;;;;;4936752;29;20017;-80
2022/09/29 12:58:56;;;;;;;8.15;5.65;;;15.40;99.90;;;;;;4936209;29;20071;-81
2022/09/29 13:01:31;;;;;;;6.82;5.00;;;15.50;99.90;;;;;;4936673;29;20058;-82
2022/09/29 13:04:16;;;;;;;9.18;5.75;;;15.50;99.90;;;;;;4936643;29;20130;-79
2022/09/29 13:07:00;;;;;;;6.63;4.25;;;15.50;99.90;;;;;;4936543;29;20056;-81
2022/09/29 13:09:53;;;;;;;5.50;4.70;;;15.40;99.90;;;;;;4936530;29;20048;-81
2022/09/29 13:12:45;;;;;;;4.75;3.88;;;15.40;99.90;;;;;;4935991;29;20047;-82
2022/09/29 13:15:17;;;;;;;4.53;4.03;;;15.40;99.90;;;;;;4935571;29;20043;-81
2022/09/29 13:17:45;;;;;;;4.13;3.70;;;15.40;99.90;;;;;;4934762;29;20057;-81